Home   Weather   Germany   Offenbach   Past weeks
Flag for Germany

Past Weather in Offenbach, Hesse, Germany — Yesterday and Last 2 Weeks

Currently: 75 °F. Sunny. (Weather station: Frankfurt-M-Flughafen Airport, Germany). See more current weather

Past Weather in Offenbach — Graph

°F

Offenbach Temperature Yesterday

Maximum temperature yesterday: 91 °F (at 4:50 pm)
Minimum temperature yesterday: 66 °F (at 4:50 am)
Average temperature yesterday: 78 °F

High & Low Weather Summary for the Past Weeks

 TemperatureHumidityPressure
High91 °F (Jun 16, 4:50 pm)100% (Jun 5, 3:50 am)30.36 "Hg (Jun 5, 3:50 am)
Low54 °F (Jun 13, 5:20 am)26% (Jun 2, 7:20 pm)29.89 "Hg (Jun 16, 4:50 pm)
Average70 °F65%30.11 "Hg
* Reported Jun 2 7:20 am — Jun 17 7:20 am, Offenbach. Weather by CustomWeather, © 2021

Note: Actual official high and low records may vary slightly from our data, if they occured in-between our weather recording intervals... More about our weather records

Offenbach Weather History for the Previous 24 Hours

Scroll right to see more
 ConditionsComfort  
Time TempWeatherWind HumidityBarometerVisibility
7:20 am
Thu, Jun 17
72 °FPassing clouds.7 mph69%29.89 "HgN/A
6:50 am70 °FSunny.6 mph69%29.92 "Hg10 mi
6:20 am70 °FSunny.7 mph69%29.89 "Hg10 mi
5:50 am68 °FSunny.5 mph73%29.89 "Hg10 mi
5:20 am70 °FSunny.6 mph69%29.89 "Hg10 mi
4:50 am68 °FClear.5 mph73%29.89 "Hg10 mi
4:20 am68 °FClear.5 mph73%29.89 "Hg10 mi
3:50 am70 °FClear.7 mph69%29.89 "Hg10 mi
3:20 am70 °FClear.8 mph69%29.89 "Hg10 mi
2:50 am72 °FClear.7 mph65%29.89 "Hg10 mi
2:20 am73 °FClear.7 mph61%29.89 "Hg10 mi
1:50 am72 °FClear.7 mph65%29.89 "Hg10 mi
1:20 am68 °FClear.6 mph73%29.92 "Hg10 mi
12:50 am70 °FClear.3 mph69%29.92 "Hg10 mi
12:20 am70 °FPassing clouds.3 mph69%29.92 "HgN/A
11:50 pm
Wed, Jun 16
72 °FClear.7 mph65%29.92 "Hg10 mi
11:20 pm73 °FPassing clouds.3 mph61%29.92 "HgN/A
10:50 pm79 °FClear.6 mph51%29.89 "Hg10 mi
10:20 pm79 °FClear.8 mph51%29.89 "Hg10 mi
9:50 pm81 °FClear.9 mph48%29.89 "Hg10 mi
9:20 pm82 °FSunny.12 mph45%29.89 "Hg10 mi
8:50 pm84 °FPassing clouds.8 mph43%29.89 "HgN/A
8:20 pm86 °FSunny.9 mph38%29.89 "Hg10 mi
7:50 pm88 °FSunny.8 mph33%29.89 "Hg10 mi
7:20 pm88 °FPassing clouds.9 mph31%29.89 "HgN/A
6:50 pm90 °FPassing clouds.8 mph27%29.89 "HgN/A
6:20 pm90 °FPassing clouds.8 mph27%29.89 "HgN/A
5:50 pm90 °FPassing clouds.7 mph29%29.89 "HgN/A
5:20 pm91 °FSunny.2 mph28%29.89 "Hg10 mi
4:50 pm91 °FPassing clouds.6 mph30%29.89 "HgN/A
4:20 pm90 °FPassing clouds.9 mph31%29.92 "HgN/A
3:50 pm90 °FSunny.6 mph31%29.92 "Hg10 mi
3:20 pm90 °FSunny.6 mph33%29.92 "Hg10 mi
2:50 pm88 °FPassing clouds.10 mph33%29.92 "HgN/A
2:20 pm88 °FSunny.7 mph38%29.92 "Hg10 mi
1:50 pm88 °FPassing clouds.6 mph38%29.95 "HgN/A
1:20 pm86 °FPassing clouds.8 mph40%29.95 "HgN/A
12:50 pm86 °FPassing clouds.6 mph43%29.95 "HgN/A
12:20 pm82 °FPassing clouds.6 mph48%29.98 "HgN/A
11:50 am82 °FPassing clouds.5 mph48%29.98 "HgN/A
11:20 am81 °FPassing clouds.6 mph51%29.98 "HgN/A
10:50 am77 °FPassing clouds.5 mph61%29.98 "HgN/A
10:20 am75 °FPassing clouds.6 mph61%29.98 "HgN/A
9:50 am73 °FSunny.7 mph65%30.01 "Hg10 mi
9:20 am73 °FPassing clouds.7 mph65%30.01 "HgN/A
8:50 am73 °FSunny.8 mph65%30.01 "Hg10 mi
8:20 am72 °FSunny.8 mph65%30.01 "Hg10 mi
Weather by CustomWeather, © 2021

See weather overview